Time;durP1;ratioP1;P1;durP2;ratioP2;P2;SDS_P1;SDS_P2;PMS_P1;PMS_P2;Temp;Humidity;BMP_temperature;BMP_pressure;BME280_temperature;BME280_humidity;BME280_pressure;Samples;Min_cycle;Max_cycle;Signal;HPM_P1;HPM_P2
2021/08/21 00:02:09;;;;;;;12.43;10.87;;;14.40;99.90;;;15.53;63.17;94380.81;4993460;28;20194;-71
2021/08/21 00:04:38;;;;;;;12.03;9.93;;;13.80;99.90;;;15.46;63.24;94382.97;5001880;28;20657;-72
2021/08/21 00:07:05;;;;;;;14.50;10.40;;;14.30;99.90;;;15.46;63.30;94392.84;5006011;28;20347;-72
2021/08/21 00:09:34;;;;;;;10.20;9.20;;;14.40;99.90;;;15.45;63.39;94394.72;5006549;28;20209;-71
2021/08/21 00:12:02;;;;;;;10.57;9.47;;;14.30;99.90;;;15.39;63.34;94383.31;5004458;28;20625;-71
2021/08/21 00:14:28;;;;;;;11.67;10.47;;;14.60;99.90;;;15.41;63.51;94391.06;5004804;28;20190;-72
2021/08/21 00:16:54;;;;;;;11.40;10.20;;;14.50;99.90;;;15.37;63.58;94392.69;5004572;28;20185;-72
2021/08/21 00:19:20;;;;;;;10.57;9.47;;;14.20;99.90;;;15.37;63.69;94388.16;5006804;28;20220;-72
2021/08/21 00:21:48;;;;;;;12.30;11.00;;;14.00;99.90;;;15.36;63.61;94385.75;5019781;28;20202;-72
2021/08/21 00:24:15;;;;;;;15.97;11.43;;;14.20;99.90;;;15.37;63.78;94392.69;5005258;28;20933;-72
2021/08/21 00:26:41;;;;;;;13.67;10.90;;;14.30;99.90;;;15.33;63.52;94397.78;5013523;28;20811;-72
2021/08/21 00:29:08;;;;;;;11.40;10.20;;;14.10;99.90;;;15.26;64.02;94393.84;5002184;28;20214;-72
2021/08/21 00:31:34;;;;;;;12.27;10.27;;;14.70;99.90;;;15.24;64.03;94388.78;4983304;28;20218;-72
2021/08/21 00:34:03;;;;;;;12.80;11.60;;;14.40;99.90;;;15.26;64.12;94402.66;5007857;28;20551;-72
2021/08/21 00:36:29;;;;;;;12.00;10.40;;;13.80;99.90;;;15.21;64.02;94392.00;5003357;28;20200;-71
2021/08/21 00:38:55;;;;;;;13.27;10.93;;;14.50;99.90;;;15.29;64.22;94395.97;5007414;28;20189;-72
2021/08/21 00:41:21;;;;;;;11.80;10.60;;;14.00;99.90;;;15.22;64.36;94382.13;4978169;28;20225;-72
2021/08/21 00:43:49;;;;;;;12.07;9.40;;;14.00;99.90;;;15.17;64.19;94385.66;4995761;28;20221;-72
2021/08/21 00:46:15;;;;;;;11.23;9.97;;;14.00;99.90;;;15.14;64.41;94388.88;4991990;28;20204;-72
2021/08/21 00:48:44;;;;;;;13.77;11.20;;;14.80;99.90;;;15.10;64.53;94390.53;5018685;28;20216;-72
2021/08/21 00:51:10;;;;;;;11.93;10.57;;;14.70;99.90;;;15.09;64.37;94393.47;5014276;28;20198;-71
2021/08/21 00:53:38;;;;;;;13.10;11.70;;;14.20;99.90;;;15.11;64.63;94396.66;5012483;28;20202;-72
2021/08/21 00:56:05;;;;;;;12.13;10.83;;;13.90;99.90;;;15.10;64.82;94390.53;5007800;28;20226;-71
2021/08/21 00:58:35;;;;;;;11.63;10.37;;;14.10;99.90;;;15.08;64.93;94397.19;4995142;28;20203;-72
2021/08/21 01:01:01;;;;;;;12.30;11.00;;;13.90;99.90;;;15.06;64.93;94400.16;5006294;28;20280;-72
2021/08/21 01:03:30;;;;;;;15.77;12.10;;;14.40;99.90;;;15.04;65.05;94394.28;5008249;28;20263;-71
2021/08/21 01:06:00;;;;;;;12.23;10.80;;;13.80;99.90;;;15.01;65.10;94405.53;5008747;28;20198;-70
2021/08/21 01:08:26;;;;;;;12.17;10.93;;;14.80;99.90;;;14.96;65.23;94394.91;4970566;28;20297;-70
2021/08/21 01:10:54;;;;;;;14.37;11.80;;;14.60;99.90;;;14.96;65.27;94396.78;5007930;28;20201;-70
2021/08/21 01:13:20;;;;;;;13.73;11.97;;;14.30;99.90;;;15.01;65.40;94399.41;4991434;28;20626;-72
2021/08/21 01:15:46;;;;;;;12.93;11.63;;;14.10;99.90;;;15.01;65.27;94394.84;4992814;28;20204;-70
2021/08/21 01:18:12;;;;;;;13.77;11.80;;;13.80;99.90;;;14.94;65.40;94390.94;4989042;28;20201;-70
2021/08/21 01:20:40;;;;;;;12.97;11.57;;;13.90;99.90;;;14.98;65.69;94403.41;4994494;28;20548;-70
2021/08/21 01:23:06;;;;;;;13.40;11.50;;;14.60;99.90;;;14.96;65.69;94397.59;5020154;28;20251;-72
2021/08/21 01:25:34;;;;;;;12.77;11.47;;;14.30;99.90;;;15.01;65.54;94399.41;5005130;28;20221;-72
2021/08/21 01:28:01;;;;;;;12.50;11.30;;;14.60;99.90;;;14.93;65.74;94406.16;4988979;28;20212;-71
2021/08/21 01:30:27;;;;;;;11.47;10.27;;;13.60;99.90;;;14.89;65.63;94403.25;5009538;28;20791;-71
2021/08/21 01:32:54;;;;;;;13.00;11.50;;;14.40;99.90;;;14.92;65.91;94404.53;5012144;28;20190;-72
2021/08/21 01:35:20;;;;;;;12.40;11.20;;;13.60;99.90;;;14.90;65.76;94401.38;5010708;28;20279;-72
2021/08/21 01:37:46;;;;;;;12.10;10.90;;;13.70;99.90;;;14.87;66.08;94399.25;5012081;28;20224;-72
2021/08/21 01:40:15;;;;;;;11.37;10.10;;;13.70;99.90;;;14.82;66.21;94393.94;4994591;28;20821;-72
2021/08/21 01:42:41;;;;;;;11.87;10.40;;;14.00;99.90;;;14.79;65.85;94403.31;5012426;28;20238;-72
2021/08/21 01:45:12;;;;;;;12.47;11.13;;;13.20;99.90;;;14.79;66.13;94410.50;4992075;28;20239;-72
2021/08/21 01:47:38;;;;;;;13.30;11.07;;;13.60;99.90;;;14.86;66.07;94408.34;5010299;28;20191;-72
2021/08/21 01:50:17;;;;;;;15.87;11.80;;;13.30;99.90;;;14.91;66.16;94407.50;4983808;28;20238;-70
2021/08/21 01:52:48;;;;;;;13.73;11.80;;;12.80;99.90;;;14.89;66.42;94402.44;5004761;28;20246;-71
2021/08/21 01:55:15;;;;;;;13.33;11.67;;;13.60;99.90;;;14.82;66.33;94400.09;5016617;28;20191;-72
2021/08/21 01:57:43;;;;;;;14.93;12.47;;;13.50;99.90;;;14.85;66.63;94407.53;4991124;28;20217;-72
2021/08/21 02:00:11;;;;;;;13.77;12.43;;;13.90;99.90;;;14.87;66.71;94409.94;5001422;28;20239;-72
2021/08/21 02:02:38;;;;;;;14.83;12.17;;;14.20;99.90;;;14.90;66.61;94409.38;5009452;28;20196;-72
2021/08/21 02:05:10;;;;;;;12.93;11.47;;;13.60;99.90;;;14.94;66.70;94409.63;5011404;28;20201;-72
2021/08/21 02:07:36;;;;;;;13.37;11.97;;;14.40;99.90;;;14.96;66.69;94407.44;5013421;28;20196;-72
2021/08/21 02:10:03;;;;;;;13.53;11.67;;;13.70;99.90;;;14.95;66.78;94405.84;5006666;28;20235;-72
2021/08/21 02:12:29;;;;;;;15.20;11.73;;;13.20;99.90;;;14.98;66.95;94400.75;4996871;28;20180;-72
2021/08/21 02:14:55;;;;;;;14.67;12.47;;;14.30;99.90;;;15.00;66.95;94400.50;5001698;28;20652;-72
2021/08/21 02:17:21;;;;;;;14.20;12.30;;;14.80;99.90;;;14.94;67.23;94402.38;5009341;28;20199;-72
2021/08/21 02:19:50;;;;;;;14.10;12.60;;;14.00;99.90;;;14.98;67.28;94413.31;4985785;28;20208;-72
2021/08/21 02:22:18;;;;;;;14.30;12.43;;;14.20;99.90;;;14.99;67.16;94407.69;5004879;28;20856;-72
2021/08/21 02:24:51;;;;;;;13.33;11.90;;;13.00;99.90;;;14.94;67.45;94405.06;5004531;28;20197;-72
2021/08/21 02:27:25;;;;;;;16.27;12.40;;;14.10;99.90;;;14.89;67.23;94413.09;5010695;28;20198;-71
2021/08/21 02:29:52;;;;;;;14.47;11.80;;;13.40;99.90;;;14.85;67.34;94410.19;5005927;28;20217;-71
2021/08/21 02:32:18;;;;;;;13.10;11.67;;;13.70;99.90;;;14.84;67.60;94402.50;5008361;28;20211;-72
2021/08/21 02:34:44;;;;;;;14.47;12.20;;;14.20;99.90;;;14.79;67.54;94394.50;4990980;28;20220;-72
2021/08/21 02:37:12;;;;;;;12.63;11.33;;;12.60;99.90;;;14.81;67.50;94406.50;4991736;28;20217;-72
2021/08/21 02:39:40;;;;;;;13.33;11.10;;;13.50;99.90;;;14.86;67.86;94401.13;5004066;28;20201;-72
2021/08/21 02:42:06;;;;;;;13.57;12.17;;;13.60;99.90;;;14.82;67.67;94393.94;5007842;28;20206;-72
2021/08/21 02:44:32;;;;;;;17.57;14.03;;;14.30;99.90;;;14.79;67.71;94395.31;4991851;28;20605;-72
2021/08/21 02:46:58;;;;;;;15.50;13.97;;;;;;;14.82;67.78;94401.94;5018573;28;20559;-72
2021/08/21 02:49:23;;;;;;;18.17;15.50;;;14.70;99.90;;;14.84;68.01;94391.81;5005741;28;20339;-72
2021/08/21 02:51:49;;;;;;;15.30;13.73;;;13.60;99.90;;;14.79;67.97;94397.97;5007066;28;20293;-72
2021/08/21 02:54:17;;;;;;;16.87;13.73;;;14.70;99.90;;;14.97;67.93;94396.50;5006531;28;20190;-72
2021/08/21 02:56:44;;;;;;;16.13;13.43;;;13.60;99.90;;;14.86;68.14;94398.47;4981634;28;20200;-72
2021/08/21 02:59:10;;;;;;;14.50;13.00;;;14.30;99.90;;;14.84;68.21;94394.47;5005344;28;20208;-72
2021/08/21 03:01:35;;;;;;;15.87;13.50;;;14.10;99.90;;;14.76;68.25;94400.41;4989577;28;20205;-72
2021/08/21 03:04:02;;;;;;;15.37;13.27;;;14.70;99.90;;;14.75;68.15;94396.13;5009154;28;20212;-72
2021/08/21 03:06:28;;;;;;;15.37;13.10;;;14.20;99.90;;;14.76;68.51;94405.72;5005896;28;20209;-72
2021/08/21 03:08:58;;;;;;;15.60;13.77;;;14.60;99.90;;;14.73;68.48;94403.63;5008529;28;20282;-72
2021/08/21 03:11:27;;;;;;;15.57;13.97;;;14.50;99.90;;;14.69;68.48;94386.56;5002469;28;20648;-72
2021/08/21 03:13:53;;;;;;;18.30;14.27;;;13.80;99.90;;;14.68;68.51;94393.78;5007099;28;20201;-72
2021/08/21 03:16:19;;;;;;;17.10;15.30;;;12.60;99.90;;;14.67;68.62;94392.16;5016117;28;20692;-72
2021/08/21 03:18:45;;;;;;;15.37;13.70;;;13.50;99.90;;;14.66;68.50;94387.94;5009097;28;20206;-72
2021/08/21 03:21:11;;;;;;;15.27;13.67;;;14.40;99.90;;;14.58;68.78;94388.50;5010613;28;20211;-72
2021/08/21 03:23:38;;;;;;;15.63;13.07;;;12.30;99.90;;;14.55;68.75;94396.25;5011457;28;20213;-72
2021/08/21 03:26:05;;;;;;;15.07;13.47;;;13.30;99.90;;;14.56;67.95;94384.53;5001854;28;20648;-72
2021/08/21 03:28:33;;;;;;;19.27;15.33;;;12.80;99.90;;;14.46;68.48;94388.06;5005795;28;20213;-73
2021/08/21 03:30:59;;;;;;;14.50;13.00;;;14.00;99.90;;;14.44;68.82;94382.19;4987668;28;20312;-72
2021/08/21 03:33:25;;;;;;;16.07;14.03;;;13.70;99.90;;;14.48;68.95;94382.44;4989333;28;20315;-72
2021/08/21 03:35:51;;;;;;;14.30;12.60;;;14.20;99.90;;;14.44;69.26;94397.41;5020163;28;20199;-72
2021/08/21 03:38:19;;;;;;;16.53;13.53;;;13.80;99.90;;;14.41;68.86;94392.59;4988003;28;20712;-72
2021/08/21 03:40:45;;;;;;;19.90;15.90;;;13.30;99.90;;;14.47;69.27;94391.53;5006305;28;20291;-72
2021/08/21 03:43:12;;;;;;;23.00;17.37;;;13.10;99.90;;;14.50;68.82;94391.78;5013390;28;20225;-72
2021/08/21 03:45:40;;;;;;;18.37;16.50;;;13.90;99.90;;;14.47;69.11;94380.84;5006184;28;20242;-71
2021/08/21 03:48:12;;;;;;;17.97;16.00;;;14.10;99.90;;;14.56;69.36;94396.00;5004917;28;20225;-71
2021/08/21 03:50:38;;;;;;;16.93;15.13;;;14.00;99.90;;;14.49;69.22;94389.38;5020660;28;20630;-71
2021/08/21 03:53:04;;;;;;;18.97;16.83;;;14.20;99.90;;;14.43;69.73;94385.16;4979845;28;20248;-71
2021/08/21 03:55:30;;;;;;;20.13;16.60;;;13.90;99.90;;;14.38;69.58;94389.44;5006804;28;20555;-71
2021/08/21 03:57:58;;;;;;;19.93;17.23;;;13.30;99.90;;;14.46;69.47;94389.94;5014661;28;20188;-71
2021/08/21 04:00:24;;;;;;;18.03;16.13;;;13.00;99.90;;;14.46;69.78;94381.94;4992303;28;20189;-71
2021/08/21 04:02:52;;;;;;;19.30;15.53;;;13.60;99.90;;;14.42;69.66;94397.69;5009080;28;20542;-72
2021/08/21 04:05:21;;;;;;;19.03;16.03;;;13.90;99.90;;;14.49;69.70;94379.50;5001460;28;20600;-71
2021/08/21 04:07:47;;;;;;;18.10;16.23;;;14.10;99.90;;;14.51;69.70;94379.22;4991493;28;20224;-71
2021/08/21 04:10:13;;;;;;;18.67;15.83;;;13.90;99.90;;;14.49;69.85;94379.50;5022905;28;20190;-71
2021/08/21 04:12:39;;;;;;;19.17;16.50;;;13.40;99.90;;;14.51;69.98;94380.00;4989758;28;20223;-71
2021/08/21 04:15:05;;;;;;;18.70;14.83;;;13.50;99.90;;;14.54;69.93;94382.13;4995864;28;20308;-71
2021/08/21 04:17:33;;;;;;;17.07;15.30;;;13.50;99.90;;;14.63;70.26;94398.34;5008583;28;20196;-71
2021/08/21 04:19:59;;;;;;;16.43;14.73;;;13.30;99.90;;;14.67;69.83;94386.06;5007654;28;20216;-71
2021/08/21 04:22:29;;;;;;;17.83;15.10;;;13.20;99.90;;;14.70;70.30;94396.19;5006395;28;20201;-71
2021/08/21 04:24:55;;;;;;;16.20;14.43;;;;;;;14.73;70.11;94399.09;4990230;28;20244;-71
2021/08/21 04:27:21;;;;;;;19.87;15.60;;;13.70;99.90;;;14.84;70.26;94397.16;5006657;28;20200;-71
2021/08/21 04:29:47;;;;;;;16.57;14.77;;;12.90;99.90;;;14.93;70.29;94389.34;4992962;28;20256;-71
2021/08/21 04:32:13;;;;;;;15.27;13.50;;;13.70;99.90;;;14.99;70.56;94394.34;4992565;28;20384;-71
2021/08/21 04:34:39;;;;;;;14.97;13.47;;;13.80;99.90;;;15.10;70.49;94398.53;4995344;28;20197;-71
2021/08/21 04:37:08;;;;;;;15.03;13.50;;;14.30;99.90;;;15.23;70.48;94402.44;5010565;28;20288;-71
2021/08/21 04:39:34;;;;;;;15.87;14.27;;;14.60;99.90;;;15.27;70.63;94404.28;5007584;28;20559;-71
2021/08/21 04:42:00;;;;;;;17.83;15.97;;;13.90;99.90;;;15.33;70.57;94400.47;5008867;28;20200;-71
2021/08/21 04:44:26;;;;;;;20.37;18.23;;;14.70;99.90;;;15.49;70.75;94403.81;4993435;28;20201;-71
2021/08/21 04:46:52;;;;;;;21.83;17.93;;;15.00;99.90;;;15.61;70.90;94390.09;4992589;28;20233;-71
2021/08/21 04:49:18;;;;;;;21.27;17.67;;;15.10;99.90;;;15.74;70.99;94410.78;4975623;28;20248;-71
2021/08/21 04:51:46;;;;;;;72.60;25.77;;;15.30;99.90;;;15.92;70.96;94415.38;4992641;28;20201;-71
2021/08/21 04:54:12;;;;;;;175.97;30.00;;;14.70;99.90;;;16.04;71.22;94405.09;4999510;28;20897;-71
2021/08/21 04:56:38;;;;;;;81.70;27.00;;;14.80;99.90;;;16.17;71.06;94409.75;5010573;28;20200;-71
2021/08/21 04:59:03;;;;;;;88.90;27.30;;;15.10;99.90;;;16.18;71.02;94408.66;5005155;28;20259;-71
2021/08/21 05:01:32;;;;;;;31.70;20.40;;;15.40;99.90;;;16.24;71.35;94415.56;5011481;28;20198;-71
2021/08/21 05:04:00;;;;;;;53.50;20.67;;;14.90;99.90;;;16.33;71.27;94426.41;4976517;28;20765;-71
2021/08/21 05:06:28;;;;;;;89.87;20.90;;;15.90;99.90;;;16.42;71.44;94422.00;5010126;28;20193;-72
2021/08/21 05:08:54;;;;;;;72.87;19.67;;;15.10;99.90;;;16.41;71.46;94415.88;5004711;28;20347;-71
2021/08/21 05:11:20;;;;;;;51.63;17.30;;;15.00;99.90;;;16.54;71.52;94416.22;4978136;28;20198;-71
2021/08/21 05:13:46;;;;;;;35.30;16.27;;;15.20;99.90;;;16.54;71.51;94418.91;5008229;28;20688;-73
2021/08/21 05:16:11;;;;;;;31.53;16.00;;;15.30;99.90;;;16.66;71.56;94421.97;4992141;28;20556;-70
2021/08/21 05:18:53;;;;;;;53.43;17.43;;;15.60;99.90;;;16.67;71.60;94423.56;5021587;28;20236;-71
2021/08/21 05:21:30;;;;;;;57.10;16.57;;;14.70;99.90;;;16.73;71.76;94427.75;5008996;28;20205;-70
2021/08/21 05:23:57;;;;;;;60.80;17.50;;;15.80;99.90;;;16.75;71.68;94418.38;5004630;28;20207;-70
2021/08/21 05:26:26;;;;;;;46.57;16.13;;;14.90;99.90;;;16.81;71.55;94425.25;4990744;28;20660;-70
2021/08/21 05:28:52;;;;;;;52.40;16.50;;;15.90;99.90;;;16.91;71.61;94421.63;5004717;28;20948;-71
2021/08/21 05:31:19;;;;;;;30.00;15.83;;;15.70;99.90;;;16.99;71.86;94415.59;5007039;28;20703;-71
2021/08/21 05:33:45;;;;;;;23.43;15.50;;;14.90;99.90;;;17.07;71.35;94422.97;4989010;28;20700;-72
2021/08/21 05:36:11;;;;;;;18.07;15.03;;;15.90;99.90;;;16.99;71.69;94428.22;5010221;28;20204;-73
2021/08/21 05:38:39;;;;;;;16.77;14.97;;;15.80;99.90;;;16.99;71.80;94431.66;4974929;28;20203;-71
2021/08/21 05:41:05;;;;;;;16.83;15.13;;;15.80;99.90;;;16.99;71.90;94428.97;4991723;28;20333;-72
2021/08/21 05:43:31;;;;;;;19.60;14.83;;;15.80;99.90;;;17.05;71.70;94435.88;5010149;28;20661;-71
2021/08/21 05:45:59;;;;;;;17.90;14.73;;;15.80;99.90;;;17.04;71.92;94426.25;5009437;28;20259;-71
2021/08/21 05:48:29;;;;;;;15.63;14.03;;;16.00;99.90;;;17.24;71.92;94443.88;4995073;28;20223;-71
2021/08/21 05:50:58;;;;;;;14.83;13.43;;;16.20;99.90;;;17.30;72.00;94446.19;5007591;28;20221;-71
2021/08/21 05:53:24;;;;;;;14.43;12.93;;;16.30;99.90;;;17.39;72.02;94444.41;5010365;28;20286;-71
2021/08/21 05:55:51;;;;;;;14.83;13.23;;;16.60;99.90;;;17.42;72.15;94441.19;4988958;28;20198;-71
2021/08/21 05:58:17;;;;;;;14.37;12.87;;;20.20;99.90;;;17.48;72.02;94441.06;5007504;28;20204;-71
2021/08/21 06:00:43;;;;;;;14.57;13.23;;;16.30;99.90;;;17.49;72.01;94429.28;4988960;28;20313;-73
2021/08/21 06:03:08;;;;;;;15.40;13.83;;;16.30;99.90;;;17.52;71.93;94439.41;5007826;28;20654;-71
2021/08/21 06:05:34;;;;;;;14.80;13.27;;;16.30;99.90;;;17.75;72.25;94452.69;4984162;28;20196;-73
2021/08/21 06:08:00;;;;;;;14.77;13.27;;;16.50;99.90;;;17.98;71.92;94463.53;5009323;28;20198;-73
2021/08/21 06:10:26;;;;;;;14.83;13.10;;;16.70;99.90;;;18.16;72.11;94458.13;4999367;28;20194;-70
2021/08/21 06:12:54;;;;;;;13.67;12.37;;;16.90;99.90;;;18.56;71.97;94483.38;5007593;28;20189;-71
2021/08/21 06:15:26;;;;;;;15.00;11.40;;;18.00;99.90;;;19.23;72.13;94481.66;5006414;28;20677;-71
2021/08/21 06:17:52;;;;;;;11.73;10.53;;;19.30;99.90;;;20.35;71.92;94502.03;5008083;28;20249;-71
2021/08/21 06:20:19;;;;;;;11.50;10.13;;;20.60;99.90;;;22.07;71.66;94534.69;5005716;28;20185;-72
2021/08/21 06:22:45;;;;;;;11.53;9.97;;;22.40;99.90;;;23.62;71.61;94501.53;5007043;28;20259;-72
2021/08/21 06:25:13;;;;;;;10.37;9.37;;;23.80;99.90;;;24.76;71.64;94491.56;5004244;28;20937;-72
2021/08/21 06:27:39;;;;;;;10.37;8.83;;;25.90;99.90;;;25.95;70.94;94495.56;5015578;28;20211;-72
2021/08/21 06:30:08;;;;;;;10.20;9.27;;;25.00;99.90;;;26.55;70.77;94497.19;4985149;28;20260;-71
2021/08/21 06:32:34;;;;;;;9.23;8.43;;;26.00;99.90;;;27.89;70.36;94548.59;4993548;28;20981;-71
2021/08/21 06:35:00;;;;;;;8.77;7.97;;;27.40;99.90;;;29.25;69.95;94537.91;5004129;28;20193;-71
2021/08/21 06:37:30;;;;;;;8.73;8.03;;;28.80;99.90;;;29.97;69.36;94499.53;5005541;28;20574;-71
2021/08/21 06:39:56;;;;;;;8.67;7.97;;;29.80;99.90;;;30.57;68.86;94491.19;4986686;28;20891;-71
2021/08/21 06:42:23;;;;;;;8.83;8.03;;;30.60;99.90;;;30.88;68.66;94477.81;4983240;28;20193;-71
2021/08/21 06:44:49;;;;;;;8.93;8.13;;;31.10;99.90;;;30.59;67.70;94472.47;5006859;28;20685;-71
2021/08/21 06:47:17;;;;;;;8.60;7.73;;;31.10;99.90;;;31.26;67.69;94530.56;5006032;28;20197;-71
2021/08/21 06:49:43;;;;;;;8.40;7.70;;;31.60;99.90;;;31.52;67.38;94481.84;4998517;28;20221;-73
2021/08/21 06:52:09;;;;;;;8.37;7.67;;;32.10;99.90;;;31.80;66.91;94485.88;5000894;28;20914;-73
2021/08/21 06:54:35;;;;;;;7.75;6.95;;;32.60;99.90;;;32.68;66.17;94523.88;5006569;28;20228;-73
2021/08/21 06:57:03;;;;;;;7.93;7.15;;;33.30;99.90;;;32.97;65.76;94465.81;5001850;28;20576;-73
2021/08/21 06:59:29;;;;;;;7.82;7.22;;;33.80;97.70;;;33.33;65.01;94488.63;4991299;28;20192;-73
2021/08/21 07:01:55;;;;;;;9.02;7.22;;;34.30;97.00;;;34.02;64.52;94512.84;5000958;28;20219;-73
2021/08/21 07:04:20;;;;;;;7.85;7.05;;;34.90;95.80;;;34.73;63.68;94498.78;5004689;28;20255;-71
2021/08/21 07:06:46;;;;;;;7.63;6.15;;;35.70;93.50;;;34.96;63.03;94490.75;4996697;28;20245;-71
2021/08/21 07:09:12;;;;;;;7.40;6.80;;;36.00;91.90;;;35.21;62.26;94502.41;4987712;28;20228;-71
2021/08/21 07:11:41;;;;;;;7.68;7.07;;;36.40;90.80;;;34.97;62.07;94473.03;4998294;28;21080;-73
2021/08/21 07:14:09;;;;;;;8.10;7.28;;;36.50;89.60;;;35.14;61.64;94485.91;5006235;28;20759;-73
2021/08/21 07:16:35;;;;;;;8.10;7.40;;;36.80;88.60;;;35.22;61.27;94498.44;4991339;28;20192;-73
2021/08/21 07:19:05;;;;;;;8.35;7.32;;;36.90;87.60;;;35.83;60.42;94504.97;5013573;28;20210;-73
2021/08/21 07:21:32;;;;;;;7.90;7.03;;;37.40;85.00;;;36.15;59.70;94490.84;5004640;28;20195;-73
2021/08/21 07:24:03;;;;;;;8.27;7.60;;;37.80;83.00;;;35.75;59.45;94453.03;4991283;28;20235;-74
2021/08/21 07:26:34;;;;;;;7.40;6.72;;;37.70;82.00;;;35.46;59.05;94475.34;5004366;28;20192;-72
2021/08/21 07:29:03;;;;;;;7.70;6.88;;;37.40;81.20;;;35.46;58.35;94502.94;4969275;28;20216;-71
2021/08/21 07:31:29;;;;;;;8.52;7.82;;;37.40;80.60;;;36.29;57.59;94542.34;4992087;28;20700;-71
2021/08/21 07:33:56;;;;;;;7.50;6.90;;;38.00;79.10;;;36.93;56.98;94500.84;5008082;28;20204;-71
2021/08/21 07:36:23;;;;;;;7.15;6.45;;;38.50;77.50;;;37.07;56.18;94497.13;5005381;28;20212;-71
2021/08/21 07:38:51;;;;;;;7.32;6.60;;;39.00;76.60;;;37.71;55.79;94478.22;4981741;28;20193;-72
2021/08/21 07:41:18;;;;;;;7.53;6.78;;;39.70;73.90;;;37.79;55.43;94476.88;4984891;28;20201;-70
2021/08/21 07:43:44;;;;;;;7.32;6.63;;;39.80;74.30;;;37.12;55.24;94433.00;5002505;28;20566;-70
2021/08/21 07:46:10;;;;;;;7.53;6.78;;;39.70;73.20;;;36.25;54.59;94434.69;5003348;28;20185;-71
2021/08/21 07:48:36;;;;;;;7.15;6.45;;;38.90;73.20;;;36.05;54.27;94438.47;5000379;28;20228;-70
2021/08/21 07:51:02;;;;;;;8.00;6.60;;;38.40;74.50;;;35.53;54.24;94392.53;4972714;28;20193;-70
2021/08/21 07:53:28;;;;;;;7.97;7.22;;;37.80;74.70;;;35.80;53.22;94505.00;4985160;28;20201;-70
2021/08/21 07:55:54;;;;;;;7.70;6.70;;;37.80;76.10;;;36.12;52.81;94480.63;4986604;28;20200;-71
2021/08/21 07:58:20;;;;;;;8.65;7.25;;;38.30;75.60;;;35.90;52.55;94491.09;5005379;28;20202;-71
2021/08/21 08:00:45;;;;;;;7.30;6.72;;;38.10;75.80;;;35.63;52.46;94459.06;4988174;28;20232;-71
2021/08/21 08:03:14;;;;;;;7.57;6.93;;;37.90;75.50;;;35.90;52.14;94510.41;4997863;28;20228;-71
2021/08/21 08:05:44;;;;;;;7.90;7.00;;;37.80;76.10;;;35.67;51.50;94495.69;5000312;28;20259;-71
2021/08/21 08:08:12;;;;;;;7.55;6.93;;;37.60;76.60;;;35.89;51.01;94472.19;4986852;28;20223;-71
2021/08/21 08:10:39;;;;;;;9.07;7.20;;;38.00;76.00;;;35.40;51.14;94456.91;5004881;28;20204;-71
2021/08/21 08:13:05;;;;;;;7.40;6.70;;;36.90;87.60;;;34.48;51.11;94439.09;5015199;28;20256;-71
2021/08/21 08:15:30;;;;;;;7.50;6.90;;;35.80;87.20;;;34.08;50.24;94455.44;5004076;28;20182;-71
2021/08/21 08:17:56;;;;;;;9.30;7.60;;;36.00;87.70;;;34.03;49.87;94489.66;5000651;28;20499;-71
2021/08/21 08:20:26;;;;;;;7.93;7.07;;;35.50;87.80;;;33.57;50.47;94480.72;4966073;28;20184;-71
2021/08/21 08:22:53;;;;;;;7.90;7.10;;;35.70;87.00;;;34.14;50.06;94501.44;5002975;28;20185;-71
2021/08/21 08:25:19;;;;;;;7.28;6.63;;;35.60;78.90;;;34.33;49.69;94503.69;5001469;28;20260;-71
2021/08/21 08:27:46;;;;;;;7.30;6.70;;;35.60;78.80;;;33.59;50.06;94457.13;5001378;28;20207;-71
2021/08/21 08:30:13;;;;;;;7.70;7.07;;;35.20;80.00;;;33.24;49.13;94441.50;5003773;28;20209;-71
2021/08/21 08:32:39;;;;;;;7.65;6.53;;;34.90;80.60;;;32.90;48.66;94558.47;5020168;28;20272;-71
2021/08/21 08:35:06;;;;;;;6.55;5.95;;;34.40;82.60;;;33.63;48.66;94512.16;5003861;28;20201;-72
2021/08/21 08:37:32;;;;;;;7.38;6.78;;;34.90;82.90;;;34.41;48.22;94466.69;5003897;28;20537;-70
2021/08/21 08:39:58;;;;;;;7.05;6.38;;;35.60;80.00;;;35.17;48.29;94526.44;5002225;28;20197;-70
2021/08/21 08:42:25;;;;;;;6.97;6.43;;;36.30;79.40;;;36.20;48.17;94547.59;5004745;28;20200;-70
2021/08/21 08:44:53;;;;;;;6.68;6.07;;;37.40;77.00;;;36.92;47.62;94474.41;5008465;28;20197;-70
2021/08/21 08:47:20;;;;;;;6.30;5.75;;;38.50;75.20;;;37.62;47.12;94546.41;4986637;28;20202;-71
2021/08/21 08:49:49;;;;;;;8.00;6.18;;;39.10;73.70;;;38.35;47.10;94544.25;5005695;28;20217;-71
2021/08/21 08:52:20;;;;;;;6.25;5.85;;;40.00;71.00;;;40.02;46.36;94568.25;4983543;28;20676;-71
2021/08/21 08:54:46;;;;;;;6.50;5.90;;;41.70;66.90;;;39.91;46.29;94429.63;5002691;28;20843;-72
2021/08/21 08:57:46;;;;;;;6.72;6.13;;;42.00;65.80;;;38.29;45.96;94489.78;4985428;28;20190;-71
2021/08/21 09:00:18;;;;;;;6.50;6.00;;;41.10;67.00;;;38.45;45.58;94526.66;5004554;28;20201;-73
2021/08/21 09:02:48;;;;;;;6.75;5.82;;;40.90;67.60;;;39.80;44.63;94574.34;5006306;28;20217;-73
2021/08/21 09:05:17;;;;;;;6.55;5.88;;;41.90;65.40;;;41.65;44.26;94598.47;5007856;28;20208;-73
2021/08/21 09:07:44;;;;;;;6.28;5.55;;;43.60;62.70;;;41.92;44.17;94450.31;5008743;28;20193;-72
2021/08/21 09:10:24;;;;;;;6.53;5.93;;;44.40;59.30;;;42.17;43.25;94594.38;5012346;28;21124;-72
2021/08/21 09:13:15;;;;;;;5.55;5.05;;;45.20;57.20;;;42.09;42.71;94562.41;4989782;28;20208;-73
2021/08/21 09:15:58;;;;;;;5.65;5.25;;;45.30;56.50;;;41.40;42.46;94487.88;5007824;28;20184;-72
2021/08/21 09:18:27;;;;;;;7.40;5.00;;;44.80;55.80;;;41.54;42.14;94503.34;5006220;28;20640;-73
2021/08/21 09:21:04;;;;;;;6.07;5.30;;;44.80;56.30;;;42.05;41.36;94559.75;4988667;28;20182;-73
2021/08/21 09:23:40;;;;;;;6.57;4.97;;;45.20;55.80;;;42.80;40.60;94600.53;4990687;28;20725;-73
2021/08/21 09:26:14;;;;;;;5.65;5.18;;;45.90;55.00;;;43.72;40.46;94540.31;4992012;28;20278;-72
2021/08/21 09:28:48;;;;;;;5.43;5.03;;;47.00;55.10;;;44.32;39.90;94541.34;5006545;28;20246;-71
2021/08/21 09:31:23;;;;;;;5.32;4.82;;;47.80;52.10;;;44.61;39.39;94486.91;5015476;28;20319;-71
2021/08/21 09:34:01;;;;;;;5.25;4.75;;;48.30;51.50;;;44.38;39.00;94508.69;4994427;28;20660;-73
2021/08/21 09:36:44;;;;;;;5.00;4.60;;;48.30;52.10;;;45.55;38.45;94538.88;4986250;28;20192;-73
2021/08/21 09:39:16;;;;;;;5.50;5.00;;;49.30;50.80;;;45.69;38.02;94527.75;5006940;28;20217;-71
2021/08/21 09:41:59;;;;;;;5.70;5.30;;;49.50;50.60;;;44.89;37.97;94508.78;4987901;28;20189;-71
2021/08/21 09:44:28;;;;;;;5.60;5.10;;;49.10;49.70;;;44.87;37.62;94396.47;4989541;28;20203;-72
2021/08/21 09:47:29;;;;;;;5.10;4.70;;;49.10;49.10;;;45.76;36.73;94661.19;4989132;28;20197;-73
2021/08/21 09:50:17;;;;;;;5.40;4.90;;;49.40;48.80;;;45.64;36.32;94562.00;5003375;28;20232;-73
2021/08/21 09:52:48;;;;;;;5.47;4.97;;;49.30;49.10;;;44.22;35.47;94439.13;4989973;28;20201;-71
2021/08/21 09:55:20;;;;;;;5.65;5.20;;;48.30;48.60;;;44.39;35.56;94562.63;5017872;28;20201;-71
2021/08/21 09:58:03;;;;;;;5.80;5.07;;;48.40;49.20;;;45.50;34.87;94551.50;5014925;28;20252;-73
2021/08/21 10:00:34;;;;;;;7.70;4.90;;;49.40;47.90;;;45.13;34.81;94424.06;5004929;28;20246;-73
2021/08/21 10:03:03;;;;;;;5.40;5.00;;;48.70;49.80;;;45.34;34.30;94474.22;4990982;28;20189;-71
2021/08/21 10:05:33;;;;;;;6.75;5.30;;;48.90;49.10;;;45.05;33.70;94451.63;5008386;28;20193;-72
2021/08/21 10:08:09;;;;;;;6.47;5.93;;;48.80;48.30;;;44.98;33.61;94451.97;4989799;28;20244;-72
2021/08/21 10:10:36;;;;;;;5.32;4.90;;;49.30;52.50;;;45.70;33.32;94442.41;5021051;28;20291;-71
2021/08/21 10:13:18;;;;;;;5.35;4.90;;;49.40;47.60;;;44.85;32.93;94468.19;5016081;28;20263;-71
2021/08/21 10:15:47;;;;;;;5.80;5.30;;;47.80;51.00;;;44.83;32.71;94563.03;5008336;28;20189;-73
2021/08/21 10:18:18;;;;;;;5.95;5.45;;;48.10;47.60;;;44.08;32.55;94405.38;4988575;28;20239;-71